createdAt,value
2018-09-26T00:01:38.269Z,99.90
2018-09-26T00:04:44.845Z,99.90
2018-09-26T00:07:47.917Z,99.90
2018-09-26T00:10:51.005Z,99.90
2018-09-26T00:13:54.125Z,99.90
2018-09-26T00:16:57.208Z,99.90
2018-09-26T00:20:00.362Z,99.90
2018-09-26T00:23:03.441Z,99.90
2018-09-26T00:26:06.563Z,99.90
2018-09-26T00:29:09.661Z,99.90
2018-09-26T00:32:12.725Z,99.90
2018-09-26T00:35:15.829Z,99.90
2018-09-26T00:38:18.910Z,99.90
2018-09-26T00:41:22.005Z,99.90
2018-09-26T00:44:25.085Z,99.90
2018-09-26T00:47:28.158Z,99.90
2018-09-26T00:50:31.245Z,99.90
2018-09-26T00:53:34.345Z,99.90
2018-09-26T00:56:37.441Z,99.90
2018-09-26T00:59:40.530Z,99.90
2018-09-26T01:02:43.625Z,99.90
2018-09-26T01:05:46.933Z,99.90
2018-09-26T01:08:50.157Z,99.90
2018-09-26T01:11:53.233Z,99.90
2018-09-26T01:14:56.321Z,99.90
2018-09-26T01:17:59.405Z,99.90
2018-09-26T01:21:02.480Z,99.90
2018-09-26T01:24:05.881Z,99.90
2018-09-26T01:27:08.950Z,99.90
2018-09-26T01:30:12.045Z,99.90
2018-09-26T01:33:15.111Z,99.90
2018-09-26T01:36:18.214Z,99.90
2018-09-26T01:39:21.381Z,99.90
2018-09-26T01:42:24.457Z,99.90
2018-09-26T01:45:27.553Z,99.90
2018-09-26T01:48:30.642Z,99.90
2018-09-26T01:51:33.722Z,99.90
2018-09-26T01:54:36.813Z,99.90
2018-09-26T01:57:39.893Z,99.90
2018-09-26T02:00:42.985Z,99.70
2018-09-26T02:03:46.061Z,99.70
2018-09-26T02:06:49.124Z,99.70
2018-09-26T02:09:52.193Z,99.70
2018-09-26T02:12:55.276Z,99.90
2018-09-26T02:15:58.370Z,99.70
2018-09-26T02:19:01.442Z,99.50
2018-09-26T02:22:04.535Z,99.50
2018-09-26T02:25:07.641Z,99.60
2018-09-26T02:28:10.748Z,99.60
2018-09-26T02:31:13.822Z,99.40
2018-09-26T02:34:16.910Z,99.50
2018-09-26T02:37:20.006Z,99.60
2018-09-26T02:40:23.086Z,99.70
2018-09-26T02:43:26.229Z,99.80
2018-09-26T02:46:29.321Z,99.80
2018-09-26T02:49:32.393Z,99.70
2018-09-26T02:52:35.458Z,99.70
2018-09-26T02:55:38.554Z,99.90
2018-09-26T02:58:41.617Z,99.60
2018-09-26T03:01:44.710Z,99.90
2018-09-26T03:04:47.785Z,99.80
2018-09-26T03:07:50.841Z,99.70
2018-09-26T03:10:53.986Z,99.70
2018-09-26T03:13:56.998Z,99.90
2018-09-26T03:17:00.102Z,99.90
2018-09-26T03:20:03.198Z,99.90
2018-09-26T03:23:06.293Z,99.90
2018-09-26T03:26:09.568Z,99.90
2018-09-26T03:29:12.633Z,99.90
2018-09-26T03:32:22.141Z,99.40
2018-09-26T03:35:25.214Z,99.70
2018-09-26T03:38:28.310Z,99.90
2018-09-26T03:41:31.362Z,99.80
2018-09-26T03:44:34.453Z,99.90
2018-09-26T03:47:37.521Z,99.70
2018-09-26T03:50:40.585Z,99.60
2018-09-26T03:53:43.669Z,99.80
2018-09-26T03:56:46.840Z,99.70
2018-09-26T03:59:49.943Z,99.50
2018-09-26T04:02:53.046Z,99.60
2018-09-26T04:05:56.117Z,99.80
2018-09-26T04:08:59.206Z,99.50
2018-09-26T04:12:02.379Z,99.50
2018-09-26T04:15:05.421Z,99.70
2018-09-26T04:18:08.510Z,99.70
2018-09-26T04:21:11.610Z,99.40
2018-09-26T04:24:14.685Z,99.40
2018-09-26T04:27:17.873Z,99.40
2018-09-26T04:30:20.879Z,99.50
2018-09-26T04:33:23.934Z,99.10
2018-09-26T04:36:27.009Z,99.00
2018-09-26T04:39:30.103Z,99.00
2018-09-26T04:42:33.196Z,98.70
2018-09-26T04:45:36.274Z,98.50
2018-09-26T04:48:39.357Z,98.40
2018-09-26T04:51:42.432Z,98.50
2018-09-26T04:54:45.529Z,98.30
2018-09-26T04:57:48.618Z,98.10
2018-09-26T05:00:51.697Z,98.00
2018-09-26T05:03:54.789Z,97.90
2018-09-26T05:07:01.349Z,97.60
2018-09-26T05:10:04.865Z,97.70
2018-09-26T05:13:07.994Z,97.30
2018-09-26T05:16:11.085Z,97.30
2018-09-26T05:19:14.211Z,97.30
2018-09-26T05:22:17.330Z,97.40
2018-09-26T05:25:20.465Z,97.10
2018-09-26T05:28:23.541Z,96.80
2018-09-26T05:31:26.995Z,96.60
2018-09-26T05:34:30.153Z,96.30
2018-09-26T05:37:33.248Z,96.10
2018-09-26T05:40:36.350Z,95.70
2018-09-26T05:43:39.462Z,95.40
2018-09-26T05:46:42.563Z,94.80
2018-09-26T05:49:45.659Z,94.70
2018-09-26T05:52:48.781Z,94.30
2018-09-26T05:55:51.869Z,93.60
2018-09-26T05:59:01.354Z,91.30
2018-09-26T06:02:04.464Z,85.80
2018-09-26T06:05:07.718Z,79.70
2018-09-26T06:08:10.818Z,74.70
2018-09-26T06:11:13.925Z,71.70
2018-09-26T06:14:17.002Z,67.10
2018-09-26T06:17:20.133Z,62.20
2018-09-26T06:20:23.223Z,57.70
2018-09-26T06:23:26.318Z,54.30
2018-09-26T06:26:29.397Z,51.10
2018-09-26T06:29:32.481Z,49.70
2018-09-26T06:32:35.669Z,52.20
2018-09-26T06:35:38.757Z,51.70
2018-09-26T06:38:41.841Z,52.30
2018-09-26T06:41:44.922Z,53.00
2018-09-26T06:44:48.003Z,51.90
2018-09-26T06:47:51.097Z,52.10
2018-09-26T06:50:54.212Z,54.50
2018-09-26T06:53:57.514Z,55.30
2018-09-26T06:57:00.602Z,56.50
2018-09-26T07:00:03.740Z,58.30
2018-09-26T07:03:06.823Z,58.70
2018-09-26T07:06:10.738Z,59.00
2018-09-26T07:09:13.806Z,59.90
2018-09-26T07:12:16.941Z,59.80
2018-09-26T07:15:19.993Z,60.90
2018-09-26T07:18:23.085Z,59.70
2018-09-26T07:21:26.177Z,60.80
2018-09-26T07:24:29.249Z,60.60
2018-09-26T07:27:32.364Z,62.10
2018-09-26T07:30:35.434Z,59.80
2018-09-26T07:33:38.561Z,59.40
2018-09-26T07:36:41.658Z,59.20
2018-09-26T07:39:44.773Z,60.30
2018-09-26T07:42:47.860Z,61.50
2018-09-26T07:45:51.104Z,62.70
2018-09-26T07:48:54.167Z,62.60
2018-09-26T07:51:57.416Z,63.50
2018-09-26T07:55:00.525Z,65.60
2018-09-26T07:58:03.625Z,65.50
2018-09-26T08:01:07.906Z,66.60
2018-09-26T08:04:11.041Z,66.70
2018-09-26T08:07:14.159Z,67.30
2018-09-26T08:10:17.245Z,68.00
2018-09-26T08:13:20.426Z,68.70
2018-09-26T08:16:23.532Z,69.70
2018-09-26T08:19:26.640Z,69.50
2018-09-26T08:22:29.717Z,69.80
2018-09-26T08:25:32.952Z,70.00
2018-09-26T08:28:36.046Z,71.00
2018-09-26T08:31:39.137Z,71.70
2018-09-26T08:34:42.272Z,70.30
2018-09-26T08:37:45.509Z,70.10
2018-09-26T08:40:48.585Z,70.50
2018-09-26T08:43:51.714Z,70.50
2018-09-26T08:46:54.745Z,69.80
2018-09-26T08:49:57.853Z,69.40
2018-09-26T08:53:00.949Z,68.40
2018-09-26T08:56:04.034Z,68.90
2018-09-26T08:59:07.134Z,67.40
2018-09-26T09:02:10.201Z,68.70
2018-09-26T09:05:13.285Z,68.50
2018-09-26T09:08:16.431Z,68.00
2018-09-26T09:11:19.613Z,68.20
2018-09-26T09:14:22.699Z,68.10
2018-09-26T09:17:25.792Z,66.20
2018-09-26T09:20:28.878Z,66.80
2018-09-26T09:23:31.989Z,66.00
2018-09-26T09:26:35.057Z,64.20
2018-09-26T09:29:38.154Z,63.40
2018-09-26T09:32:41.230Z,64.20
2018-09-26T09:35:44.362Z,64.50
2018-09-26T09:38:47.473Z,64.40
2018-09-26T09:41:50.546Z,61.90
2018-09-26T09:44:57.580Z,61.80
2018-09-26T09:48:00.625Z,63.20
2018-09-26T09:51:03.783Z,62.90
2018-09-26T09:54:07.116Z,63.30
2018-09-26T09:57:10.279Z,64.70
2018-09-26T10:00:13.342Z,64.40
2018-09-26T10:03:16.799Z,61.60
2018-09-26T10:06:19.871Z,61.50
2018-09-26T10:09:22.983Z,60.00
2018-09-26T10:12:26.059Z,60.20
2018-09-26T10:15:29.135Z,61.80
2018-09-26T10:18:32.245Z,62.00
2018-09-26T10:21:35.377Z,61.40
2018-09-26T10:24:38.457Z,59.70
2018-09-26T10:27:41.542Z,58.50
2018-09-26T10:30:44.624Z,57.10
2018-09-26T10:33:47.725Z,57.00
2018-09-26T10:36:50.818Z,56.00
2018-09-26T10:39:53.906Z,56.80
2018-09-26T10:42:57.054Z,56.30
2018-09-26T10:46:00.142Z,57.00
2018-09-26T10:49:03.247Z,58.50
2018-09-26T10:52:06.385Z,57.40
2018-09-26T10:55:09.526Z,56.10
2018-09-26T10:58:12.625Z,55.30
2018-09-26T11:01:15.824Z,54.20
2018-09-26T11:04:18.992Z,53.90
2018-09-26T11:07:22.721Z,53.20
2018-09-26T11:10:25.886Z,53.50
2018-09-26T11:13:28.958Z,53.50
2018-09-26T11:16:32.090Z,52.40
2018-09-26T11:19:35.182Z,51.80
2018-09-26T11:22:38.296Z,52.60
2018-09-26T11:25:41.368Z,51.90
2018-09-26T11:28:44.482Z,51.40
2018-09-26T11:31:47.558Z,50.50
2018-09-26T11:34:50.639Z,51.40
2018-09-26T11:37:53.730Z,51.60
2018-09-26T11:40:56.812Z,52.60
2018-09-26T11:44:00.329Z,52.60
2018-09-26T11:47:03.502Z,52.60
2018-09-26T11:50:06.678Z,53.70
2018-09-26T11:53:11.321Z,54.70
2018-09-26T11:56:14.857Z,54.60
2018-09-26T11:59:17.922Z,55.10
2018-09-26T12:02:21.007Z,54.70
2018-09-26T12:05:24.102Z,54.50
2018-09-26T12:08:27.358Z,54.20
2018-09-26T12:11:30.402Z,55.20
2018-09-26T12:14:33.548Z,55.90
2018-09-26T12:17:36.601Z,55.10
2018-09-26T12:20:39.806Z,55.30
2018-09-26T12:23:43.021Z,54.40
2018-09-26T12:26:46.122Z,55.20
2018-09-26T12:29:49.222Z,56.60
2018-09-26T12:32:52.342Z,56.30
2018-09-26T12:35:55.454Z,57.70
2018-09-26T12:38:58.546Z,56.90
2018-09-26T12:42:01.681Z,57.30
2018-09-26T12:45:04.771Z,56.50
2018-09-26T12:48:07.964Z,56.60
2018-09-26T12:51:10.999Z,56.70
2018-09-26T12:54:14.111Z,57.20
2018-09-26T12:57:17.231Z,56.40
2018-09-26T13:00:20.320Z,56.10
2018-09-26T13:03:23.432Z,56.40
2018-09-26T13:06:26.534Z,56.00
2018-09-26T13:09:29.626Z,55.70
2018-09-26T13:12:32.751Z,55.70
2018-09-26T13:15:35.842Z,56.10
2018-09-26T13:18:38.972Z,55.20
2018-09-26T13:21:42.031Z,54.50
2018-09-26T13:24:45.130Z,54.30
2018-09-26T13:27:48.195Z,56.00
2018-09-26T13:30:51.306Z,56.10
2018-09-26T13:33:54.384Z,55.50
2018-09-26T13:36:57.485Z,55.10
2018-09-26T13:40:00.577Z,55.80
2018-09-26T13:43:03.672Z,55.40
2018-09-26T13:46:06.838Z,55.70
2018-09-26T13:49:09.875Z,55.20
2018-09-26T13:52:12.971Z,56.10
2018-09-26T13:55:16.030Z,56.50
2018-09-26T13:58:19.220Z,55.20
2018-09-26T14:01:22.354Z,54.70
2018-09-26T14:04:25.422Z,55.50
2018-09-26T14:07:28.497Z,55.20
2018-09-26T14:10:31.645Z,55.90
2018-09-26T14:13:34.660Z,54.60
2018-09-26T14:16:37.765Z,55.60
2018-09-26T14:19:45.098Z,55.40
2018-09-26T14:22:48.537Z,55.60
2018-09-26T14:25:51.695Z,55.40
2018-09-26T14:28:55.166Z,54.90
2018-09-26T14:31:58.461Z,55.10
2018-09-26T14:35:01.726Z,55.20
2018-09-26T14:38:04.998Z,55.30
2018-09-26T14:41:09.143Z,55.30
2018-09-26T14:44:12.331Z,56.10
2018-09-26T14:47:15.637Z,56.30
2018-09-26T14:50:18.932Z,56.30
2018-09-26T14:53:22.155Z,56.20
2018-09-26T14:56:25.346Z,56.10
2018-09-26T14:59:28.588Z,56.20
2018-09-26T15:02:31.857Z,56.30
2018-09-26T15:05:35.139Z,55.50
2018-09-26T15:08:38.418Z,54.70
2018-09-26T15:11:41.643Z,54.50
2018-09-26T15:14:44.886Z,55.50
2018-09-26T15:17:48.122Z,55.60
2018-09-26T15:20:51.429Z,55.90
2018-09-26T15:24:01.420Z,56.30
2018-09-26T15:27:04.757Z,56.30
2018-09-26T15:30:08.287Z,56.80
2018-09-26T15:33:26.505Z,57.00
2018-09-26T15:36:30.855Z,57.00
2018-09-26T15:39:34.189Z,57.30
2018-09-26T15:42:37.456Z,56.50
2018-09-26T15:45:40.975Z,57.50
2018-09-26T15:48:44.225Z,57.20
2018-09-26T15:51:47.459Z,57.70
2018-09-26T15:54:50.697Z,58.10
2018-09-26T15:57:53.970Z,58.30
2018-09-26T16:00:57.215Z,58.40
2018-09-26T16:04:17.314Z,58.80
2018-09-26T16:07:20.393Z,58.90
2018-09-26T16:10:23.526Z,59.80
2018-09-26T16:13:26.594Z,60.40
2018-09-26T16:16:29.685Z,60.40
2018-09-26T16:19:32.818Z,61.10
2018-09-26T16:22:35.897Z,61.80
2018-09-26T16:25:39.089Z,61.80
2018-09-26T16:28:42.126Z,61.70
2018-09-26T16:31:45.257Z,61.40
2018-09-26T16:34:48.332Z,61.40
2018-09-26T16:37:51.436Z,62.40
2018-09-26T16:40:54.568Z,61.80
2018-09-26T16:43:57.670Z,61.70
2018-09-26T16:47:00.795Z,62.00
2018-09-26T16:50:03.933Z,62.00
2018-09-26T16:53:06.998Z,62.00
2018-09-26T16:56:10.092Z,62.30
2018-09-26T16:59:13.169Z,61.80
2018-09-26T17:02:16.381Z,61.70
2018-09-26T17:05:19.703Z,62.60
2018-09-26T17:08:22.868Z,62.10
2018-09-26T17:11:25.951Z,62.40
2018-09-26T17:14:29.165Z,62.60
2018-09-26T17:17:32.254Z,62.10
2018-09-26T17:20:35.401Z,61.80
2018-09-26T17:23:38.491Z,62.10
2018-09-26T17:26:41.597Z,61.60
2018-09-26T17:29:44.707Z,61.60
2018-09-26T17:32:47.812Z,62.20
2018-09-26T17:35:50.970Z,62.00
2018-09-26T17:38:54.045Z,62.30
2018-09-26T17:41:57.128Z,62.40
2018-09-26T17:45:00.285Z,62.30
2018-09-26T17:48:03.392Z,62.10
2018-09-26T17:51:06.561Z,62.20
2018-09-26T17:54:09.703Z,62.50
2018-09-26T17:57:12.885Z,62.60
2018-09-26T18:00:16.019Z,62.70
2018-09-26T18:03:19.080Z,62.60
2018-09-26T18:06:25.289Z,62.70
2018-09-26T18:09:28.389Z,63.10
2018-09-26T18:12:31.574Z,63.20
2018-09-26T18:15:34.677Z,63.00
2018-09-26T18:18:37.790Z,63.50
2018-09-26T18:21:40.877Z,64.30
2018-09-26T18:24:44.013Z,64.50
2018-09-26T18:27:47.212Z,64.50
2018-09-26T18:30:50.249Z,65.50
2018-09-26T18:33:53.353Z,65.80
2018-09-26T18:36:56.470Z,66.00
2018-09-26T18:39:59.615Z,65.90
2018-09-26T18:43:02.717Z,66.00
2018-09-26T18:46:05.813Z,66.80
2018-09-26T18:49:08.941Z,66.70
2018-09-26T18:52:12.070Z,66.80
2018-09-26T18:55:15.153Z,66.90
2018-09-26T18:58:18.283Z,66.90
2018-09-26T19:01:21.338Z,67.70
2018-09-26T19:04:25.149Z,68.60
2018-09-26T19:07:28.385Z,68.40
2018-09-26T19:10:31.579Z,68.50
2018-09-26T19:13:34.741Z,68.50
2018-09-26T19:16:37.825Z,68.90
2018-09-26T19:19:40.927Z,69.60
2018-09-26T19:22:43.998Z,69.80
2018-09-26T19:25:47.095Z,70.10
2018-09-26T19:28:50.510Z,70.00
2018-09-26T19:31:53.577Z,70.60
2018-09-26T19:34:56.711Z,70.90
2018-09-26T19:38:00.202Z,70.90
2018-09-26T19:41:03.729Z,71.00
2018-09-26T19:44:06.825Z,71.20
2018-09-26T19:47:10.175Z,71.20
2018-09-26T19:50:13.258Z,71.80
2018-09-26T19:53:16.466Z,71.70
2018-09-26T19:56:19.634Z,71.60
2018-09-26T19:59:22.645Z,71.20
2018-09-26T20:02:25.765Z,71.30
2018-09-26T20:05:28.861Z,71.60
2018-09-26T20:08:32.308Z,71.50
2018-09-26T20:11:35.409Z,71.50
2018-09-26T20:14:38.533Z,71.20
2018-09-26T20:17:41.651Z,71.20
2018-09-26T20:20:44.741Z,71.00
2018-09-26T20:23:47.822Z,71.20
2018-09-26T20:26:51.052Z,71.30
2018-09-26T20:29:54.022Z,71.40
2018-09-26T20:32:57.138Z,71.90
2018-09-26T20:36:00.191Z,72.10
2018-09-26T20:39:04.429Z,71.90
2018-09-26T20:45:17.206Z,73.10
2018-09-26T20:48:20.249Z,73.00
2018-09-26T20:51:23.346Z,72.60
2018-09-26T20:54:26.421Z,72.90
2018-09-26T20:57:29.533Z,73.30
2018-09-26T21:00:32.870Z,73.90
2018-09-26T21:03:35.905Z,74.40
2018-09-26T21:06:39.015Z,75.50
2018-09-26T21:09:42.093Z,77.00
2018-09-26T21:12:45.179Z,75.90
2018-09-26T21:15:48.306Z,75.80
2018-09-26T21:18:51.393Z,76.40
2018-09-26T21:21:54.513Z,76.70
2018-09-26T21:24:57.606Z,77.10
2018-09-26T21:28:00.697Z,77.50
2018-09-26T21:31:03.845Z,78.10
2018-09-26T21:34:06.894Z,78.10
2018-09-26T21:37:10.030Z,78.50
2018-09-26T21:40:13.143Z,78.70
2018-09-26T21:43:16.260Z,79.10
2018-09-26T21:46:19.349Z,78.60
2018-09-26T21:49:22.464Z,78.60
2018-09-26T21:52:25.518Z,79.50
2018-09-26T21:55:28.617Z,79.90
2018-09-26T21:58:31.709Z,80.90
2018-09-26T22:01:34.807Z,80.70
2018-09-26T22:04:37.916Z,80.80
2018-09-26T22:07:41.002Z,81.20
2018-09-26T22:10:44.101Z,81.30
2018-09-26T22:13:47.189Z,81.30
2018-09-26T22:16:50.294Z,82.00
2018-09-26T22:19:53.381Z,82.50
2018-09-26T22:22:56.482Z,82.80
2018-09-26T22:25:59.619Z,82.80
2018-09-26T22:29:02.710Z,82.60
2018-09-26T22:32:06.010Z,82.40
2018-09-26T22:35:09.132Z,82.80
2018-09-26T22:38:12.246Z,83.40
2018-09-26T22:41:15.294Z,83.00
2018-09-26T22:44:18.397Z,82.60
2018-09-26T22:47:21.466Z,82.30
2018-09-26T22:50:24.545Z,82.80
2018-09-26T22:53:27.688Z,82.80
2018-09-26T22:56:30.801Z,81.70
2018-09-26T22:59:33.877Z,82.60
2018-09-26T23:02:36.949Z,83.90
2018-09-26T23:05:40.042Z,83.60
2018-09-26T23:08:43.191Z,84.20
2018-09-26T23:11:46.265Z,84.30
2018-09-26T23:14:49.375Z,84.60
2018-09-26T23:17:52.437Z,84.90
2018-09-26T23:20:55.545Z,84.80
2018-09-26T23:23:58.640Z,85.30
2018-09-26T23:27:01.725Z,85.00
2018-09-26T23:30:04.777Z,85.20
2018-09-26T23:33:07.938Z,85.80
2018-09-26T23:36:11.034Z,85.50
2018-09-26T23:39:14.130Z,85.30
2018-09-26T23:42:17.210Z,84.90
2018-09-26T23:45:20.274Z,85.40
2018-09-26T23:48:23.356Z,85.90
2018-09-26T23:51:26.466Z,85.90
2018-09-26T23:54:29.566Z,84.90
2018-09-26T23:57:32.688Z,84.50
